sensor_id;sensor_type;location;lat;lon;timestamp;P1;durP1;ratioP1;P2;durP2;ratioP2
71975;SDS011;60680;52.182;5.398;2023-03-01T16:24:59;5.27;;;2.73;;
71975;SDS011;60680;52.182;5.398;2023-03-01T16:27:26;5.15;;;3.05;;
71975;SDS011;60680;52.182;5.398;2023-03-01T16:29:53;5.00;;;2.50;;
71975;SDS011;60680;52.182;5.398;2023-03-01T16:32:20;4.78;;;2.97;;
71975;SDS011;60680;52.182;5.398;2023-03-01T16:34:47;5.15;;;2.65;;
71975;SDS011;60680;52.182;5.398;2023-03-01T16:37:15;4.00;;;2.63;;
71975;SDS011;60680;52.182;5.398;2023-03-01T16:39:43;5.60;;;2.60;;
71975;SDS011;60680;52.182;5.398;2023-03-01T16:42:10;4.45;;;2.38;;
71975;SDS011;60680;52.182;5.398;2023-03-01T16:44:36;4.82;;;2.38;;
71975;SDS011;60680;52.182;5.398;2023-03-01T16:47:03;5.03;;;2.87;;
71975;SDS011;60680;52.182;5.398;2023-03-01T16:49:29;4.88;;;2.20;;
71975;SDS011;68326;52.124;5.424;2023-03-01T16:51:56;4.45;;;2.40;;
71975;SDS011;68326;52.124;5.424;2023-03-01T16:54:22;4.85;;;2.60;;
71975;SDS011;68326;52.124;5.424;2023-03-01T16:56:49;3.28;;;2.15;;
71975;SDS011;68326;52.124;5.424;2023-03-01T16:59:15;3.77;;;2.20;;
71975;SDS011;68326;52.124;5.424;2023-03-01T17:01:44;5.03;;;2.50;;
71975;SDS011;68326;52.124;5.424;2023-03-01T17:04:11;3.70;;;2.38;;
71975;SDS011;68326;52.124;5.424;2023-03-01T17:06:38;5.68;;;2.45;;
71975;SDS011;68326;52.124;5.424;2023-03-01T17:09:05;6.10;;;2.45;;
71975;SDS011;68326;52.124;5.424;2023-03-01T17:11:31;6.07;;;2.10;;
71975;SDS011;68326;52.124;5.424;2023-03-01T17:13:58;6.28;;;2.28;;
71975;SDS011;68326;52.124;5.424;2023-03-01T17:16:25;4.47;;;2.50;;
71975;SDS011;68326;52.124;5.424;2023-03-01T17:18:54;3.95;;;2.10;;
71975;SDS011;68326;52.124;5.424;2023-03-01T17:21:21;4.22;;;2.33;;
71975;SDS011;68326;52.124;5.424;2023-03-01T17:23:47;3.80;;;2.40;;
71975;SDS011;68326;52.124;5.424;2023-03-01T17:26:16;3.95;;;2.13;;
71975;SDS011;68326;52.124;5.424;2023-03-01T17:28:43;4.30;;;2.40;;
71975;SDS011;68326;52.124;5.424;2023-03-01T17:31:12;3.72;;;1.90;;
71975;SDS011;68326;52.124;5.424;2023-03-01T17:33:38;5.72;;;2.58;;
71975;SDS011;68326;52.124;5.424;2023-03-01T17:36:06;4.23;;;2.37;;
71975;SDS011;68326;52.124;5.424;2023-03-01T17:38:35;3.78;;;2.03;;
71975;SDS011;68326;52.124;5.424;2023-03-01T17:41:03;4.88;;;2.25;;
71975;SDS011;68326;52.124;5.424;2023-03-01T17:43:31;4.22;;;2.53;;
71975;SDS011;68326;52.124;5.424;2023-03-01T17:46:02;4.65;;;2.30;;
71975;SDS011;68326;52.124;5.424;2023-03-01T17:48:31;4.40;;;2.20;;
71975;SDS011;68326;52.124;5.424;2023-03-01T17:51:00;5.50;;;2.38;;
71975;SDS011;68326;52.124;5.424;2023-03-01T17:53:35;5.05;;;2.60;;
71975;SDS011;68326;52.124;5.424;2023-03-01T17:56:03;5.97;;;2.55;;
71975;SDS011;68326;52.124;5.424;2023-03-01T17:58:33;5.72;;;2.70;;
71975;SDS011;68326;52.124;5.424;2023-03-01T18:01:08;6.63;;;3.30;;
71975;SDS011;68326;52.124;5.424;2023-03-01T18:03:45;6.30;;;2.85;;
71975;SDS011;68326;52.124;5.424;2023-03-01T18:06:20;5.53;;;3.10;;
71975;SDS011;68326;52.124;5.424;2023-03-01T18:08:50;5.45;;;2.78;;
71975;SDS011;68326;52.124;5.424;2023-03-01T18:11:20;6.07;;;2.58;;
71975;SDS011;68326;52.124;5.424;2023-03-01T18:13:52;6.83;;;3.30;;
71975;SDS011;68326;52.124;5.424;2023-03-01T18:16:22;6.60;;;2.97;;
71975;SDS011;68326;52.124;5.424;2023-03-01T18:18:52;5.00;;;2.67;;
71975;SDS011;68326;52.124;5.424;2023-03-01T18:21:20;6.68;;;2.78;;
71975;SDS011;68326;52.124;5.424;2023-03-01T18:23:52;6.20;;;2.90;;
71975;SDS011;68326;52.124;5.424;2023-03-01T18:26:25;7.17;;;2.97;;
71975;SDS011;68326;52.124;5.424;2023-03-01T18:28:57;7.97;;;3.70;;
71975;SDS011;68326;52.124;5.424;2023-03-01T18:31:30;5.43;;;2.60;;
71975;SDS011;68326;52.124;5.424;2023-03-01T18:34:03;5.50;;;3.00;;
71975;SDS011;68326;52.124;5.424;2023-03-01T18:36:31;9.32;;;3.47;;
71975;SDS011;68326;52.124;5.424;2023-03-01T18:39:05;7.50;;;3.30;;
71975;SDS011;68326;52.124;5.424;2023-03-01T18:41:35;7.53;;;3.10;;
71975;SDS011;68326;52.124;5.424;2023-03-01T18:44:02;6.57;;;3.20;;
71975;SDS011;68326;52.124;5.424;2023-03-01T18:46:35;5.60;;;2.92;;
71975;SDS011;68326;52.124;5.424;2023-03-01T18:49:15;5.20;;;2.60;;
71975;SDS011;68326;52.124;5.424;2023-03-01T18:51:44;6.77;;;3.30;;
71975;SDS011;68326;52.124;5.424;2023-03-01T18:54:14;6.40;;;3.55;;
71975;SDS011;68326;52.124;5.424;2023-03-01T18:56:41;8.68;;;3.58;;
71975;SDS011;68326;52.124;5.424;2023-03-01T18:59:09;8.60;;;3.72;;
71975;SDS011;68326;52.124;5.424;2023-03-01T19:01:45;6.05;;;3.20;;
71975;SDS011;68326;52.124;5.424;2023-03-01T19:04:16;8.30;;;4.10;;
71975;SDS011;68326;52.124;5.424;2023-03-01T19:06:46;6.97;;;3.85;;
71975;SDS011;68326;52.124;5.424;2023-03-01T19:09:15;9.05;;;3.88;;
71975;SDS011;68326;52.124;5.424;2023-03-01T19:11:52;5.90;;;3.17;;
71975;SDS011;68326;52.124;5.424;2023-03-01T19:14:28;7.97;;;3.35;;
71975;SDS011;68326;52.124;5.424;2023-03-01T19:16:55;5.37;;;3.20;;
71975;SDS011;68326;52.124;5.424;2023-03-01T19:19:32;8.77;;;4.05;;
71975;SDS011;68326;52.124;5.424;2023-03-01T19:22:04;8.05;;;3.67;;
71975;SDS011;68326;52.124;5.424;2023-03-01T19:24:39;7.03;;;3.40;;
71975;SDS011;68326;52.124;5.424;2023-03-01T19:27:06;7.53;;;3.60;;
71975;SDS011;68326;52.124;5.424;2023-03-01T19:29:35;8.60;;;3.50;;
71975;SDS011;68326;52.124;5.424;2023-03-01T19:32:06;7.72;;;3.60;;
71975;SDS011;68326;52.124;5.424;2023-03-01T19:34:33;8.13;;;3.78;;
71975;SDS011;68326;52.124;5.424;2023-03-01T19:37:05;7.57;;;3.60;;
71975;SDS011;68326;52.124;5.424;2023-03-01T19:39:34;8.40;;;3.80;;
71975;SDS011;68326;52.124;5.424;2023-03-01T19:42:01;6.77;;;3.90;;
71975;SDS011;68326;52.124;5.424;2023-03-01T19:44:35;7.25;;;3.53;;
71975;SDS011;68326;52.124;5.424;2023-03-01T19:47:05;10.40;;;4.15;;
71975;SDS011;68326;52.124;5.424;2023-03-01T19:49:40;6.68;;;3.70;;
71975;SDS011;68326;52.124;5.424;2023-03-01T19:52:08;6.40;;;3.55;;
71975;SDS011;68326;52.124;5.424;2023-03-01T19:54:42;7.53;;;3.53;;
71975;SDS011;68326;52.124;5.424;2023-03-01T19:57:12;9.00;;;3.65;;
71975;SDS011;68326;52.124;5.424;2023-03-01T19:59:45;7.38;;;3.55;;
71975;SDS011;68326;52.124;5.424;2023-03-01T20:02:12;8.35;;;3.60;;
71975;SDS011;68326;52.124;5.424;2023-03-01T20:04:39;7.68;;;3.60;;
71975;SDS011;68326;52.124;5.424;2023-03-01T20:07:06;7.10;;;3.60;;
71975;SDS011;68326;52.124;5.424;2023-03-01T20:09:32;7.93;;;4.07;;
71975;SDS011;68326;52.124;5.424;2023-03-01T20:12:06;9.52;;;4.18;;
71975;SDS011;68326;52.124;5.424;2023-03-01T20:14:44;10.15;;;4.15;;
71975;SDS011;68326;52.124;5.424;2023-03-01T20:17:30;7.72;;;3.80;;
71975;SDS011;68326;52.124;5.424;2023-03-01T20:20:02;8.27;;;4.23;;
71975;SDS011;68326;52.124;5.424;2023-03-01T20:22:32;9.23;;;4.30;;
71975;SDS011;68326;52.124;5.424;2023-03-01T20:25:03;9.85;;;4.05;;
71975;SDS011;68326;52.124;5.424;2023-03-01T20:27:31;10.27;;;4.60;;
71975;SDS011;68326;52.124;5.424;2023-03-01T20:30:01;11.50;;;3.80;;
71975;SDS011;68326;52.124;5.424;2023-03-01T20:32:30;10.37;;;4.37;;
71975;SDS011;68326;52.124;5.424;2023-03-01T20:34:59;10.02;;;4.47;;
71975;SDS011;68326;52.124;5.424;2023-03-01T20:37:29;10.23;;;4.78;;
71975;SDS011;68326;52.124;5.424;2023-03-01T20:39:59;11.05;;;4.20;;
71975;SDS011;68326;52.124;5.424;2023-03-01T20:42:28;10.65;;;4.53;;
71975;SDS011;68326;52.124;5.424;2023-03-01T20:44:55;7.77;;;4.33;;
71975;SDS011;68326;52.124;5.424;2023-03-01T20:47:23;10.57;;;4.72;;
71975;SDS011;68326;52.124;5.424;2023-03-01T20:49:50;9.60;;;4.88;;
71975;SDS011;68326;52.124;5.424;2023-03-01T20:52:19;10.93;;;4.80;;
71975;SDS011;68326;52.124;5.424;2023-03-01T20:54:46;10.00;;;4.18;;
71975;SDS011;68326;52.124;5.424;2023-03-01T20:57:19;12.13;;;5.17;;
71975;SDS011;68326;52.124;5.424;2023-03-01T20:59:50;13.13;;;5.38;;
71975;SDS011;68326;52.124;5.424;2023-03-01T21:02:24;11.40;;;5.78;;
71975;SDS011;68326;52.124;5.424;2023-03-01T21:04:53;12.80;;;4.97;;
71975;SDS011;68326;52.124;5.424;2023-03-01T21:07:31;10.98;;;5.38;;
71975;SDS011;68326;52.124;5.424;2023-03-01T21:09:58;10.07;;;5.47;;
71975;SDS011;68326;52.124;5.424;2023-03-01T21:12:37;13.73;;;5.80;;
71975;SDS011;68326;52.124;5.424;2023-03-01T21:15:06;13.55;;;5.22;;
71975;SDS011;68326;52.124;5.424;2023-03-01T21:17:54;10.48;;;5.10;;
71975;SDS011;68326;52.124;5.424;2023-03-01T21:20:27;12.70;;;4.88;;
71975;SDS011;68326;52.124;5.424;2023-03-01T21:22:59;10.53;;;4.73;;
71975;SDS011;68326;52.124;5.424;2023-03-01T21:25:29;9.98;;;4.75;;
71975;SDS011;68326;52.124;5.424;2023-03-01T21:28:05;11.63;;;5.22;;
71975;SDS011;68326;52.124;5.424;2023-03-01T21:30:33;9.93;;;4.75;;
71975;SDS011;68326;52.124;5.424;2023-03-01T21:33:01;11.07;;;5.13;;
71975;SDS011;68326;52.124;5.424;2023-03-01T21:35:30;10.83;;;4.67;;
71975;SDS011;68326;52.124;5.424;2023-03-01T21:37:58;9.38;;;4.75;;
71975;SDS011;68326;52.124;5.424;2023-03-01T21:40:30;11.07;;;4.70;;
71975;SDS011;68326;52.124;5.424;2023-03-01T21:42:58;9.80;;;4.57;;
71975;SDS011;68326;52.124;5.424;2023-03-01T21:45:25;10.98;;;4.53;;
71975;SDS011;68326;52.124;5.424;2023-03-01T21:48:03;12.17;;;4.40;;
71975;SDS011;68326;52.124;5.424;2023-03-01T21:50:31;8.80;;;4.57;;
71975;SDS011;68326;52.124;5.424;2023-03-01T21:53:01;12.82;;;5.00;;
71975;SDS011;68326;52.124;5.424;2023-03-01T21:55:53;8.02;;;4.30;;
71975;SDS011;68326;52.124;5.424;2023-03-01T21:58:20;9.25;;;4.43;;
71975;SDS011;68326;52.124;5.424;2023-03-01T22:00:48;10.60;;;4.77;;
71975;SDS011;68326;52.124;5.424;2023-03-01T22:03:20;10.52;;;4.78;;
71975;SDS011;68326;52.124;5.424;2023-03-01T22:05:56;10.55;;;5.25;;
71975;SDS011;68326;52.124;5.424;2023-03-01T22:08:25;10.68;;;4.80;;
71975;SDS011;68326;52.124;5.424;2023-03-01T22:10:53;11.82;;;5.78;;
71975;SDS011;68326;52.124;5.424;2023-03-01T22:13:22;12.07;;;5.63;;
71975;SDS011;68326;52.124;5.424;2023-03-01T22:15:49;11.23;;;5.22;;
71975;SDS011;68326;52.124;5.424;2023-03-01T22:18:20;12.75;;;5.72;;
71975;SDS011;68326;52.124;5.424;2023-03-01T22:20:47;10.38;;;5.03;;
71975;SDS011;68326;52.124;5.424;2023-03-01T22:23:19;12.48;;;5.35;;
71975;SDS011;68326;52.124;5.424;2023-03-01T22:25:48;12.87;;;5.57;;
71975;SDS011;68326;52.124;5.424;2023-03-01T22:28:18;12.75;;;5.32;;
71975;SDS011;68326;52.124;5.424;2023-03-01T22:30:50;13.05;;;5.40;;
71975;SDS011;68326;52.124;5.424;2023-03-01T22:33:17;12.27;;;5.90;;
71975;SDS011;68326;52.124;5.424;2023-03-01T22:35:53;13.48;;;5.72;;
71975;SDS011;68326;52.124;5.424;2023-03-01T22:38:25;12.60;;;5.30;;
71975;SDS011;68326;52.124;5.424;2023-03-01T22:40:56;15.73;;;6.25;;
71975;SDS011;68326;52.124;5.424;2023-03-01T22:43:28;14.38;;;5.97;;
71975;SDS011;68326;52.124;5.424;2023-03-01T22:46:14;12.70;;;5.75;;
71975;SDS011;68326;52.124;5.424;2023-03-01T22:48:53;12.77;;;6.07;;
71975;SDS011;68326;52.124;5.424;2023-03-01T22:51:30;13.67;;;6.67;;
71975;SDS011;68326;52.124;5.424;2023-03-01T22:54:00;13.13;;;5.93;;
71975;SDS011;68326;52.124;5.424;2023-03-01T22:56:32;15.65;;;6.43;;
71975;SDS011;68326;52.124;5.424;2023-03-01T22:59:05;13.85;;;6.28;;
71975;SDS011;68326;52.124;5.424;2023-03-01T23:01:46;15.98;;;7.03;;
71975;SDS011;68326;52.124;5.424;2023-03-01T23:04:15;15.83;;;7.60;;
71975;SDS011;68326;52.124;5.424;2023-03-01T23:06:46;17.95;;;7.38;;
71975;SDS011;68326;52.124;5.424;2023-03-01T23:09:19;17.88;;;7.90;;
71975;SDS011;68326;52.124;5.424;2023-03-01T23:11:47;17.27;;;7.05;;
71975;SDS011;68326;52.124;5.424;2023-03-01T23:14:27;18.38;;;7.85;;
71975;SDS011;68326;52.124;5.424;2023-03-01T23:16:58;17.90;;;7.37;;
71975;SDS011;68326;52.124;5.424;2023-03-01T23:19:32;21.13;;;8.18;;
71975;SDS011;68326;52.124;5.424;2023-03-01T23:22:04;23.55;;;9.13;;
71975;SDS011;68326;52.124;5.424;2023-03-01T23:24:32;20.38;;;8.63;;
71975;SDS011;68326;52.124;5.424;2023-03-01T23:27:00;21.90;;;9.00;;
71975;SDS011;68326;52.124;5.424;2023-03-01T23:29:44;19.47;;;8.00;;
71975;SDS011;68326;52.124;5.424;2023-03-01T23:32:13;21.77;;;9.15;;
71975;SDS011;68326;52.124;5.424;2023-03-01T23:34:44;22.67;;;9.02;;
71975;SDS011;68326;52.124;5.424;2023-03-01T23:37:11;23.98;;;9.45;;
71975;SDS011;68326;52.124;5.424;2023-03-01T23:39:42;21.25;;;8.88;;
71975;SDS011;68326;52.124;5.424;2023-03-01T23:42:13;23.73;;;10.17;;
71975;SDS011;68326;52.124;5.424;2023-03-01T23:44:40;23.65;;;9.57;;
71975;SDS011;68326;52.124;5.424;2023-03-01T23:47:13;24.55;;;9.90;;
71975;SDS011;68326;52.124;5.424;2023-03-01T23:49:40;24.42;;;9.95;;
71975;SDS011;68326;52.124;5.424;2023-03-01T23:52:11;23.17;;;10.02;;
71975;SDS011;68326;52.124;5.424;2023-03-01T23:54:46;24.00;;;9.33;;
71975;SDS011;68326;52.124;5.424;2023-03-01T23:57:14;22.63;;;9.60;;
71975;SDS011;68326;52.124;5.424;2023-03-01T23:59:42;26.65;;;10.65;;
